createdAt,value
2022-09-14T00:02:11.236Z,5.65
2022-09-14T00:04:41.797Z,5.12
2022-09-14T00:07:10.894Z,6.55
2022-09-14T00:09:40.508Z,5.92
2022-09-14T00:12:10.235Z,6.03
2022-09-14T00:14:40.910Z,8.25
2022-09-14T00:17:11.026Z,8.78
2022-09-14T00:19:40.547Z,5.85
2022-09-14T00:22:09.927Z,5.17
2022-09-14T00:24:40.055Z,5.30
2022-09-14T00:27:10.271Z,5.87
2022-09-14T00:29:40.135Z,7.15
2022-09-14T00:32:12.526Z,4.75
2022-09-14T00:34:44.623Z,6.37
2022-09-14T00:37:14.108Z,8.58
2022-09-14T00:39:43.872Z,6.40
2022-09-14T00:42:16.464Z,5.85
2022-09-14T00:44:54.823Z,6.15
2022-09-14T00:47:25.840Z,5.40
2022-09-14T00:49:55.299Z,5.70
2022-09-14T00:52:28.933Z,7.05
2022-09-14T00:55:05.816Z,7.70
2022-09-14T00:57:44.266Z,4.37
2022-09-14T01:02:44.748Z,4.95
2022-09-14T01:05:14.568Z,4.70
2022-09-14T01:08:00.985Z,7.75
2022-09-14T01:11:01.444Z,6.35
2022-09-14T01:13:54.302Z,5.75
2022-09-14T01:17:05.747Z,4.35
2022-09-14T01:20:05.833Z,6.28
2022-09-14T01:22:58.404Z,4.17
2022-09-14T01:26:00.303Z,3.87
2022-09-14T01:28:52.754Z,5.15
2022-09-14T01:31:36.648Z,4.78
2022-09-14T01:34:32.679Z,3.60
2022-09-14T01:37:18.417Z,10.40
2022-09-14T01:39:55.435Z,4.83
2022-09-14T01:42:24.763Z,5.70
2022-09-14T01:44:57.686Z,4.75
2022-09-14T01:47:40.758Z,4.10
2022-09-14T01:50:19.955Z,5.05
2022-09-14T01:53:00.154Z,5.20
2022-09-14T01:55:53.595Z,3.90
2022-09-14T01:58:28.137Z,3.58
2022-09-14T02:00:57.614Z,4.12
2022-09-14T02:03:31.479Z,6.47
2022-09-14T02:06:29.233Z,6.45
2022-09-14T02:08:59.913Z,4.67
2022-09-14T02:11:31.428Z,4.50
2022-09-14T02:14:00.671Z,3.10
2022-09-14T02:16:31.114Z,5.22
2022-09-14T02:19:01.478Z,3.33
2022-09-14T02:21:32.300Z,4.40
2022-09-14T02:24:02.588Z,4.05
2022-09-14T02:26:31.463Z,3.27
2022-09-14T02:29:01.178Z,5.30
2022-09-14T02:31:41.892Z,4.45
2022-09-14T02:34:39.180Z,3.77
2022-09-14T02:37:36.594Z,4.28
2022-09-14T02:40:39.105Z,3.25
2022-09-14T02:43:45.842Z,5.03
2022-09-14T02:46:26.309Z,4.08
2022-09-14T02:49:18.670Z,5.05
2022-09-14T02:52:05.493Z,4.67
2022-09-14T02:54:40.158Z,3.60
2022-09-14T02:57:11.986Z,4.72
2022-09-14T02:59:42.860Z,3.95
2022-09-14T03:02:12.353Z,4.12
2022-09-14T03:04:43.365Z,3.25
2022-09-14T03:07:12.231Z,3.00
2022-09-14T03:09:41.510Z,4.97
2022-09-14T03:12:12.239Z,4.47
2022-09-14T03:14:41.298Z,4.25
2022-09-14T03:17:12.326Z,4.33
2022-09-14T03:19:42.376Z,3.58
2022-09-14T03:22:12.879Z,4.12
2022-09-14T03:24:42.335Z,4.45
2022-09-14T03:27:11.732Z,4.22
2022-09-14T03:29:40.930Z,5.47
2022-09-14T03:32:13.145Z,5.28
2022-09-14T03:34:42.890Z,4.42
2022-09-14T03:37:28.779Z,6.03
2022-09-14T03:39:57.925Z,3.70
2022-09-14T03:42:29.422Z,4.67
2022-09-14T03:44:59.103Z,4.12
2022-09-14T03:47:29.019Z,4.87
2022-09-14T03:49:58.288Z,4.45
2022-09-14T03:52:27.462Z,3.58
2022-09-14T03:54:56.363Z,4.70
2022-09-14T03:57:26.453Z,3.50
2022-09-14T03:59:55.875Z,2.65
2022-09-14T04:02:25.241Z,3.22
2022-09-14T04:04:54.259Z,2.98
2022-09-14T04:07:24.272Z,4.40
2022-09-14T04:09:53.543Z,3.33
2022-09-14T04:12:24.514Z,3.15
2022-09-14T04:14:53.612Z,3.15
2022-09-14T04:17:25.048Z,3.83
2022-09-14T04:19:55.005Z,4.65
2022-09-14T04:22:25.047Z,3.80
2022-09-14T04:24:54.654Z,5.28
2022-09-14T04:27:24.661Z,3.20
2022-09-14T04:29:53.695Z,2.92
2022-09-14T04:32:22.423Z,4.62
2022-09-14T04:34:52.397Z,5.45
2022-09-14T04:37:22.203Z,3.20
2022-09-14T04:39:50.987Z,4.45
2022-09-14T04:42:20.435Z,3.02
2022-09-14T04:44:50.349Z,3.80
2022-09-14T04:47:20.347Z,5.67
2022-09-14T04:49:49.968Z,5.55
2022-09-14T04:52:19.044Z,4.03
2022-09-14T04:54:48.183Z,5.08
2022-09-14T04:57:17.029Z,5.28
2022-09-14T04:59:46.667Z,5.12
2022-09-14T05:02:16.482Z,4.10
2022-09-14T05:04:46.552Z,5.60
2022-09-14T05:07:15.804Z,3.87
2022-09-14T05:09:46.062Z,2.95
2022-09-14T05:12:15.863Z,6.67
2022-09-14T05:14:45.000Z,2.98
2022-09-14T05:17:15.343Z,3.47
2022-09-14T05:19:45.898Z,4.37
2022-09-14T05:22:15.398Z,4.83
2022-09-14T05:24:44.719Z,3.30
2022-09-14T05:27:14.220Z,3.22
2022-09-14T05:29:43.324Z,6.03
2022-09-14T05:32:13.112Z,3.50
2022-09-14T05:34:42.687Z,3.70
2022-09-14T05:37:12.671Z,4.03
2022-09-14T05:39:43.127Z,3.30
2022-09-14T05:42:12.285Z,3.02
2022-09-14T05:44:42.517Z,4.70
2022-09-14T05:47:12.196Z,3.67
2022-09-14T05:49:42.207Z,3.25
2022-09-14T05:52:11.921Z,3.80
2022-09-14T05:54:41.177Z,7.35
2022-09-14T05:57:11.432Z,4.70
2022-09-14T05:59:40.906Z,7.20
2022-09-14T06:02:12.750Z,6.45
2022-09-14T06:04:43.198Z,4.65
2022-09-14T06:07:18.811Z,4.90
2022-09-14T06:09:43.273Z,5.25
2022-09-14T06:12:14.549Z,5.85
2022-09-14T06:14:44.588Z,3.25
2022-09-14T06:17:13.651Z,4.97
2022-09-14T06:19:43.816Z,3.58
2022-09-14T06:22:13.362Z,9.23
2022-09-14T06:24:43.702Z,6.03
2022-09-14T06:27:13.599Z,5.62
2022-09-14T06:29:44.229Z,6.83
2022-09-14T06:32:13.699Z,6.72
2022-09-14T06:34:46.195Z,4.87
2022-09-14T06:37:15.101Z,5.47
2022-09-14T06:39:45.364Z,5.80
2022-09-14T06:42:17.930Z,8.45
2022-09-14T06:44:49.100Z,6.17
2022-09-14T06:47:18.697Z,6.53
2022-09-14T06:49:50.158Z,3.77
2022-09-14T06:52:21.375Z,4.37
2022-09-14T06:54:51.175Z,4.83
2022-09-14T06:57:20.031Z,5.58
2022-09-14T06:59:50.010Z,4.50
2022-09-14T07:02:19.405Z,3.92
2022-09-14T07:04:48.693Z,6.15
2022-09-14T07:07:20.613Z,6.17
2022-09-14T07:09:55.211Z,6.17
2022-09-14T07:12:24.516Z,5.33
2022-09-14T07:14:58.391Z,4.37
2022-09-14T07:17:27.413Z,3.75
2022-09-14T07:19:56.291Z,8.38
2022-09-14T07:22:26.291Z,4.08
2022-09-14T07:24:55.753Z,6.20
2022-09-14T07:27:24.558Z,4.17
2022-09-14T07:29:54.185Z,3.02
2022-09-14T07:32:24.369Z,3.10
2022-09-14T07:34:53.380Z,4.37
2022-09-14T07:37:22.651Z,4.40
2022-09-14T07:39:52.475Z,4.15
2022-09-14T07:42:21.518Z,3.33
2022-09-14T07:44:50.599Z,3.08
2022-09-14T07:47:19.699Z,4.08
2022-09-14T07:49:54.039Z,2.60
2022-09-14T07:52:38.614Z,3.83
2022-09-14T07:55:12.466Z,4.17
2022-09-14T07:57:56.022Z,8.40
2022-09-14T08:00:21.787Z,4.83
2022-09-14T08:02:54.993Z,2.85
2022-09-14T08:05:25.907Z,3.75
2022-09-14T08:07:58.347Z,3.75
2022-09-14T08:10:28.515Z,5.17
2022-09-14T08:12:58.438Z,3.02
2022-09-14T08:15:28.747Z,1.72
2022-09-14T08:17:59.108Z,2.98
2022-09-14T08:20:29.415Z,1.87
2022-09-14T08:23:00.382Z,3.37
2022-09-14T08:25:30.736Z,6.87
2022-09-14T08:28:00.541Z,3.80
2022-09-14T08:30:29.331Z,4.83
2022-09-14T08:33:01.730Z,4.47
2022-09-14T08:35:56.048Z,3.05
2022-09-14T08:38:00.674Z,3.20
2022-09-14T08:40:30.190Z,5.55
2022-09-14T08:42:58.692Z,2.87
2022-09-14T08:45:27.121Z,6.28
2022-09-14T08:47:55.825Z,3.05
2022-09-14T08:50:24.566Z,5.35
2022-09-14T08:52:53.348Z,3.25
2022-09-14T08:55:45.140Z,2.55
2022-09-14T08:58:43.591Z,8.78
2022-09-14T09:01:19.044Z,6.90
2022-09-14T09:04:38.494Z,4.90
2022-09-14T09:09:52.161Z,4.22
2022-09-14T09:12:26.845Z,4.30
2022-09-14T09:14:58.326Z,3.67
2022-09-14T09:17:34.151Z,3.27
2022-09-14T09:20:23.215Z,2.00
2022-09-14T09:23:12.400Z,3.85
2022-09-14T09:26:02.144Z,4.60
2022-09-14T09:28:30.875Z,2.30
2022-09-14T09:31:04.618Z,3.05
2022-09-14T09:33:35.330Z,4.03
2022-09-14T09:36:09.489Z,2.50
2022-09-14T09:38:39.341Z,2.12
2022-09-14T09:41:23.237Z,2.80
2022-09-14T09:44:02.601Z,3.15
2022-09-14T09:46:34.583Z,3.98
2022-09-14T09:49:06.991Z,3.75
2022-09-14T09:51:36.655Z,2.47
2022-09-14T09:54:12.877Z,9.15
2022-09-14T09:56:55.030Z,2.95
2022-09-14T09:59:40.519Z,2.77
2022-09-14T10:02:31.177Z,7.50
2022-09-14T10:05:08.682Z,4.33
2022-09-14T10:07:58.616Z,5.33
2022-09-14T10:10:38.971Z,6.87
2022-09-14T10:13:29.350Z,4.30
2022-09-14T10:16:17.183Z,4.28
2022-09-14T10:18:49.982Z,4.37
2022-09-14T10:21:23.702Z,6.20
2022-09-14T10:24:21.377Z,4.95
2022-09-14T10:26:54.811Z,3.80
2022-09-14T10:29:43.001Z,5.50
2022-09-14T10:32:19.987Z,6.40
2022-09-14T10:34:50.877Z,3.85
2022-09-14T10:37:37.306Z,4.60
2022-09-14T10:40:16.599Z,4.80
2022-09-14T10:43:13.044Z,3.47
2022-09-14T10:45:52.507Z,5.03
2022-09-14T10:48:46.213Z,5.08
2022-09-14T10:51:44.842Z,3.62
2022-09-14T10:54:19.067Z,5.12
2022-09-14T10:57:19.547Z,3.20
2022-09-14T10:59:56.332Z,5.87
2022-09-14T11:02:54.955Z,5.28
2022-09-14T11:05:47.210Z,3.27
2022-09-14T11:08:39.326Z,3.83
2022-09-14T11:11:27.263Z,4.65
2022-09-14T11:14:33.452Z,5.12
2022-09-14T11:17:17.437Z,4.15
2022-09-14T11:20:26.379Z,3.75
2022-09-14T11:23:46.773Z,3.98
2022-09-14T11:26:33.734Z,3.98
2022-09-14T11:29:23.373Z,6.45
2022-09-14T11:32:19.823Z,7.22
2022-09-14T11:34:55.917Z,8.10
2022-09-14T11:37:41.637Z,5.72
2022-09-14T11:40:39.473Z,6.08
2022-09-14T11:43:49.707Z,5.25
2022-09-14T11:46:26.529Z,5.00
2022-09-14T11:49:01.587Z,5.97
2022-09-14T11:51:37.524Z,5.85
2022-09-14T11:54:16.534Z,5.40
2022-09-14T11:56:55.348Z,8.48
2022-09-14T11:59:46.589Z,8.43
2022-09-14T12:02:29.743Z,8.03
2022-09-14T12:05:10.462Z,5.30
2022-09-14T12:07:51.493Z,6.00
2022-09-14T12:10:21.337Z,8.60
2022-09-14T12:13:08.074Z,6.90
2022-09-14T12:15:40.791Z,5.42
2022-09-14T12:18:16.303Z,9.33
2022-09-14T12:20:52.304Z,7.37
2022-09-14T12:23:42.143Z,6.95
2022-09-14T12:26:17.704Z,7.65
2022-09-14T12:28:52.040Z,7.17
2022-09-14T12:31:47.863Z,8.28
2022-09-14T12:34:22.486Z,6.15
2022-09-14T12:36:57.654Z,8.35
2022-09-14T12:39:35.273Z,7.53
2022-09-14T12:42:26.295Z,7.80
2022-09-14T12:44:55.584Z,7.95
2022-09-14T12:47:32.682Z,8.05
2022-09-14T12:50:20.508Z,6.08
2022-09-14T12:52:57.368Z,6.25
2022-09-14T12:55:51.379Z,6.60
2022-09-14T12:58:51.006Z,7.83
2022-09-14T13:01:53.958Z,9.33
2022-09-14T13:04:37.237Z,14.30
2022-09-14T13:07:09.730Z,13.03
2022-09-14T13:09:41.118Z,12.23
2022-09-14T13:12:11.945Z,10.40
2022-09-14T13:14:48.351Z,13.83
2022-09-14T13:17:17.273Z,18.00
2022-09-14T13:19:59.059Z,16.87
2022-09-14T13:22:31.531Z,15.63
2022-09-14T13:25:03.590Z,12.58
2022-09-14T13:27:35.675Z,19.25
2022-09-14T13:30:12.596Z,13.45
2022-09-14T13:32:46.405Z,9.50
2022-09-14T13:35:35.040Z,10.20
2022-09-14T13:38:12.236Z,10.50
2022-09-14T13:40:42.253Z,11.60
2022-09-14T13:43:11.515Z,9.50
2022-09-14T13:45:40.308Z,10.72
2022-09-14T13:48:10.466Z,12.40
2022-09-14T13:50:40.381Z,12.10
2022-09-14T13:53:30.854Z,10.50
2022-09-14T13:56:00.921Z,10.28
2022-09-14T13:58:35.015Z,9.65
2022-09-14T14:01:05.779Z,11.28
2022-09-14T14:03:44.290Z,11.95
2022-09-14T14:06:38.532Z,10.68
2022-09-14T14:09:09.470Z,13.13
2022-09-14T14:11:46.524Z,10.05
2022-09-14T14:17:15.837Z,11.15
2022-09-14T14:19:46.393Z,12.90
2022-09-14T14:22:22.605Z,13.75
2022-09-14T14:25:12.793Z,11.43
2022-09-14T14:27:37.299Z,11.80
2022-09-14T14:30:21.039Z,10.53
2022-09-14T14:32:54.570Z,11.78
2022-09-14T14:35:29.734Z,12.40
2022-09-14T14:37:59.137Z,11.15
2022-09-14T14:40:28.986Z,11.33
2022-09-14T14:42:58.516Z,11.70
2022-09-14T14:45:27.744Z,12.07
2022-09-14T14:47:57.864Z,12.90
2022-09-14T14:50:30.640Z,13.18
2022-09-14T14:53:01.201Z,9.83
2022-09-14T14:55:31.622Z,13.30
2022-09-14T14:58:03.719Z,11.10
2022-09-14T15:00:34.714Z,12.35
2022-09-14T15:03:04.497Z,11.20
2022-09-14T15:05:35.326Z,11.97
2022-09-14T15:08:04.719Z,12.68
2022-09-14T15:10:34.702Z,11.30
2022-09-14T15:13:04.308Z,16.32
2022-09-14T15:15:34.013Z,14.38
2022-09-14T15:18:03.561Z,24.02
2022-09-14T15:20:32.342Z,29.90
2022-09-14T15:23:01.871Z,25.82
2022-09-14T15:25:31.541Z,21.80
2022-09-14T15:28:01.270Z,16.17
2022-09-14T15:30:30.947Z,16.75
2022-09-14T15:33:06.497Z,13.83
2022-09-14T15:35:35.231Z,13.65
2022-09-14T15:38:05.303Z,19.65
2022-09-14T15:40:34.895Z,18.00
2022-09-14T15:43:03.883Z,16.75
2022-09-14T15:45:33.847Z,13.58
2022-09-14T15:48:03.380Z,17.42
2022-09-14T15:50:32.206Z,15.75
2022-09-14T15:53:02.934Z,15.00
2022-09-14T15:55:33.093Z,18.77
2022-09-14T15:58:02.673Z,13.72
2022-09-14T16:00:32.907Z,12.88
2022-09-14T16:03:03.607Z,12.88
2022-09-14T16:05:39.401Z,17.35
2022-09-14T16:08:10.292Z,12.55
2022-09-14T16:10:39.208Z,13.05
2022-09-14T16:13:09.703Z,13.53
2022-09-14T16:15:38.671Z,12.58
2022-09-14T16:18:08.411Z,12.20
2022-09-14T16:20:37.535Z,11.28
2022-09-14T16:23:07.153Z,12.70
2022-09-14T16:25:42.252Z,13.88
2022-09-14T16:28:11.360Z,13.05
2022-09-14T16:30:43.266Z,11.75
2022-09-14T16:33:13.807Z,10.90
2022-09-14T16:35:43.738Z,12.47
2022-09-14T16:38:13.863Z,11.30
2022-09-14T16:40:43.138Z,12.93
2022-09-14T16:43:12.522Z,13.93
2022-09-14T16:45:41.472Z,14.65
2022-09-14T16:48:11.642Z,15.45
2022-09-14T16:50:42.301Z,12.80
2022-09-14T16:53:11.325Z,14.68
2022-09-14T16:55:40.278Z,12.33
2022-09-14T16:58:09.335Z,14.25
2022-09-14T17:00:43.599Z,15.83
2022-09-14T17:03:12.732Z,44.50
2022-09-14T17:05:41.850Z,46.20
2022-09-14T17:08:12.425Z,40.55
2022-09-14T17:10:41.557Z,30.23
2022-09-14T17:13:11.688Z,39.20
2022-09-14T17:15:42.610Z,58.42
2022-09-14T17:18:11.862Z,37.38
2022-09-14T17:20:43.969Z,44.10
2022-09-14T17:23:15.280Z,30.57
2022-09-14T17:25:45.517Z,24.72
2022-09-14T17:28:14.459Z,22.42
2022-09-14T17:30:44.770Z,19.12
2022-09-14T17:33:14.817Z,15.40
2022-09-14T17:35:54.881Z,15.98
2022-09-14T17:38:27.449Z,15.83
2022-09-14T17:41:06.955Z,19.48
2022-09-14T17:43:38.565Z,20.00
2022-09-14T17:46:09.490Z,19.57
2022-09-14T17:48:41.861Z,17.95
2022-09-14T17:51:15.724Z,17.87
2022-09-14T17:53:46.981Z,20.57
2022-09-14T17:56:17.689Z,17.85
2022-09-14T17:58:49.861Z,16.73
2022-09-14T18:01:22.960Z,16.73
2022-09-14T18:03:56.655Z,16.20
2022-09-14T18:06:29.894Z,18.60
2022-09-14T18:09:02.131Z,15.28
2022-09-14T18:11:33.303Z,17.70
2022-09-14T18:14:04.725Z,15.28
2022-09-14T18:16:36.474Z,12.63
2022-09-14T18:19:06.463Z,14.47
2022-09-14T18:21:35.956Z,15.25
2022-09-14T18:24:05.806Z,16.10
2022-09-14T18:26:38.098Z,16.87
2022-09-14T18:29:08.533Z,17.95
2022-09-14T18:31:38.033Z,18.05
2022-09-14T18:34:09.698Z,15.35
2022-09-14T18:36:40.614Z,17.50
2022-09-14T18:39:10.575Z,17.62
2022-09-14T18:41:41.511Z,18.50
2022-09-14T18:44:13.065Z,17.35
2022-09-14T18:46:46.569Z,18.67
2022-09-14T18:49:17.848Z,21.82
2022-09-14T18:51:46.667Z,19.30
2022-09-14T18:54:16.397Z,22.77
2022-09-14T18:56:46.090Z,21.20
2022-09-14T18:59:17.726Z,21.73
2022-09-14T19:01:46.701Z,22.98
2022-09-14T19:04:16.187Z,20.92
2022-09-14T19:06:46.804Z,18.50
2022-09-14T19:09:16.106Z,22.73
2022-09-14T19:11:47.724Z,19.80
2022-09-14T19:14:19.279Z,18.57
2022-09-14T19:16:50.911Z,21.40
2022-09-14T19:19:21.195Z,21.65
2022-09-14T19:21:51.460Z,20.85
2022-09-14T19:24:21.234Z,22.87
2022-09-14T19:26:52.606Z,22.17
2022-09-14T19:29:23.369Z,23.35
2022-09-14T19:31:52.793Z,23.95
2022-09-14T19:34:25.637Z,20.57
2022-09-14T19:36:55.295Z,21.30
2022-09-14T19:39:25.301Z,22.55
2022-09-14T19:41:54.123Z,19.90
2022-09-14T19:44:24.536Z,21.52
2022-09-14T19:46:55.737Z,17.42
2022-09-14T19:49:25.723Z,16.42
2022-09-14T19:51:54.791Z,20.75
2022-09-14T19:54:24.531Z,19.40
2022-09-14T19:56:54.374Z,20.52
2022-09-14T19:59:25.285Z,17.35
2022-09-14T20:01:55.670Z,19.20
2022-09-14T20:04:25.798Z,18.25
2022-09-14T20:06:56.324Z,18.98
2022-09-14T20:09:26.071Z,17.50
2022-09-14T20:11:57.154Z,18.80
2022-09-14T20:14:26.686Z,17.62
2022-09-14T20:16:58.302Z,19.07
2022-09-14T20:19:28.765Z,22.85
2022-09-14T20:21:57.799Z,17.92
2022-09-14T20:24:28.482Z,18.12
2022-09-14T20:26:59.550Z,18.67
2022-09-14T20:29:35.213Z,16.50
2022-09-14T20:32:05.102Z,17.07
2022-09-14T20:34:36.046Z,18.07
2022-09-14T20:37:06.634Z,20.15
2022-09-14T20:39:37.885Z,21.45
2022-09-14T20:42:07.353Z,19.32
2022-09-14T20:44:36.168Z,23.12
2022-09-14T20:47:06.085Z,21.07
2022-09-14T20:49:36.350Z,23.83
2022-09-14T20:52:07.102Z,19.52
2022-09-14T20:54:38.442Z,19.17
2022-09-14T20:57:07.499Z,25.37
2022-09-14T20:59:38.061Z,19.70
2022-09-14T21:02:08.147Z,20.50
2022-09-14T21:04:38.977Z,25.95
2022-09-14T21:07:07.952Z,22.65
2022-09-14T21:09:37.347Z,22.30
2022-09-14T21:12:12.240Z,25.45
2022-09-14T21:14:45.077Z,24.55
2022-09-14T21:17:14.521Z,18.82
2022-09-14T21:19:44.608Z,21.65
2022-09-14T21:22:14.093Z,22.00
2022-09-14T21:24:44.113Z,23.20
2022-09-14T21:27:13.278Z,22.70
2022-09-14T21:29:43.567Z,20.17
2022-09-14T21:32:13.865Z,21.95
2022-09-14T21:34:43.556Z,20.35
2022-09-14T21:37:12.741Z,20.50
2022-09-14T21:39:43.347Z,20.70
2022-09-14T21:42:13.503Z,22.70
2022-09-14T21:44:42.741Z,23.70
2022-09-14T21:47:11.583Z,24.20
2022-09-14T21:49:40.792Z,21.05
2022-09-14T21:52:10.149Z,20.72
2022-09-14T21:54:40.270Z,21.87
2022-09-14T21:57:09.474Z,22.87
2022-09-14T21:59:38.686Z,27.05
2022-09-14T22:02:09.001Z,24.80
2022-09-14T22:04:38.294Z,22.10
2022-09-14T22:07:08.947Z,21.93
2022-09-14T22:09:38.885Z,20.32
2022-09-14T22:12:07.982Z,22.07
2022-09-14T22:14:37.536Z,19.62
2022-09-14T22:17:07.516Z,20.02
2022-09-14T22:19:37.462Z,19.35
2022-09-14T22:22:07.551Z,18.23
2022-09-14T22:24:39.118Z,19.75
2022-09-14T22:27:11.910Z,16.37
2022-09-14T22:29:41.106Z,16.57
2022-09-14T22:32:11.963Z,19.98
2022-09-14T22:34:41.567Z,21.02
2022-09-14T22:37:11.950Z,19.25
2022-09-14T22:39:41.812Z,17.87
2022-09-14T22:42:12.083Z,18.52
2022-09-14T22:44:41.144Z,18.60
2022-09-14T22:47:13.051Z,18.95
2022-09-14T22:49:43.000Z,17.45
2022-09-14T22:52:11.884Z,16.75
2022-09-14T22:54:41.417Z,15.80
2022-09-14T22:57:12.620Z,15.72
2022-09-14T22:59:42.787Z,15.00
2022-09-14T23:02:13.316Z,17.65
2022-09-14T23:04:43.511Z,14.85
2022-09-14T23:07:12.477Z,16.48
2022-09-14T23:09:44.288Z,17.37
2022-09-14T23:12:14.480Z,16.95
2022-09-14T23:14:49.279Z,16.90
2022-09-14T23:17:19.206Z,18.57
2022-09-14T23:19:48.822Z,17.65
2022-09-14T23:22:19.021Z,17.60
2022-09-14T23:24:48.705Z,17.32
2022-09-14T23:27:18.559Z,16.52
2022-09-14T23:29:48.138Z,16.55
2022-09-14T23:32:18.377Z,15.83
2022-09-14T23:34:51.054Z,16.93
2022-09-14T23:37:20.300Z,16.27
2022-09-14T23:39:49.829Z,16.32
2022-09-14T23:42:20.276Z,16.25
2022-09-14T23:44:49.931Z,17.37
2022-09-14T23:47:19.105Z,18.87
2022-09-14T23:49:49.239Z,16.50
2022-09-14T23:52:20.357Z,16.48
2022-09-14T23:54:49.813Z,17.05
2022-09-14T23:57:20.134Z,15.43
2022-09-14T23:59:48.924Z,16.60
